Terminal Aerodrome Forecast
Issued by NWS Denver/Boulder, CO

Home | Current Version | Previous Version | Text Only | Print | Product List | Glossary On
Versions: 1 2 3 4 5 6 7 8 9 10 11 12 13 14 15 16 17 18 19 20 21 22 23 24 25 26 27 28 29 30 31 32 33 34 35 36 37
000
FTUS45 KBOU 151740
TAFDEN
TAF
KDEN 151740Z 1518/1624 04010KT 1SM -SN BR BKN015 OVC035
      TEMPO 1518/1519 3SM -SN BR SCT010 OVC015
     FM151900 05013KT 5SM -SN BR BKN025 OVC035
     FM152100 09010KT P6SM SCT025 OVC040
     FM160100 14007KT P6SM SCT040 BKN100
     FM160400 18008KT P6SM FEW120 SCT200
     FM161000 22007KT P6SM SCT220=

USA.gov is the U.S. government's official web portal to all federal, state and local government web resources and services.